sensor_id;sensor_type;location;lat;lon;timestamp;temperature;humidity
40323;DHT22;26030;51.164;17.100;2023-12-28T00:00:00;23.90;55.60
40323;DHT22;26030;51.164;17.100;2023-12-28T00:05:06;23.80;56.00
40323;DHT22;26030;51.164;17.100;2023-12-28T00:10:11;23.60;56.10
40323;DHT22;26030;51.164;17.100;2023-12-28T00:15:15;23.50;56.30
40323;DHT22;26030;51.164;17.100;2023-12-28T00:20:20;23.40;56.40
40323;DHT22;26030;51.164;17.100;2023-12-28T00:25:27;23.30;56.60
40323;DHT22;26030;51.164;17.100;2023-12-28T00:30:32;23.20;56.60
40323;DHT22;26030;51.164;17.100;2023-12-28T00:35:36;23.20;56.70
40323;DHT22;26030;51.164;17.100;2023-12-28T00:40:40;23.10;56.80
40323;DHT22;26030;51.164;17.100;2023-12-28T00:45:45;23.10;56.80
40323;DHT22;26030;51.164;17.100;2023-12-28T00:50:50;23.10;56.70
40323;DHT22;26030;51.164;17.100;2023-12-28T00:55:55;23.30;56.70
40323;DHT22;26030;51.164;17.100;2023-12-28T01:00:59;23.60;55.60
40323;DHT22;26030;51.164;17.100;2023-12-28T01:06:04;23.80;55.30
40323;DHT22;26030;51.164;17.100;2023-12-28T01:11:10;24.00;55.20
40323;DHT22;26030;51.164;17.100;2023-12-28T01:16:16;24.10;54.60
40323;DHT22;26030;51.164;17.100;2023-12-28T01:21:21;24.20;54.20
40323;DHT22;26030;51.164;17.100;2023-12-28T01:26:25;24.10;54.70
40323;DHT22;26030;51.164;17.100;2023-12-28T01:31:30;24.00;54.60
40323;DHT22;26030;51.164;17.100;2023-12-28T01:36:35;23.70;55.00
40323;DHT22;26030;51.164;17.100;2023-12-28T01:41:39;23.60;56.00
40323;DHT22;26030;51.164;17.100;2023-12-28T01:46:43;23.50;55.60
40323;DHT22;26030;51.164;17.100;2023-12-28T01:51:48;23.40;55.80
40323;DHT22;26030;51.164;17.100;2023-12-28T01:56:53;23.40;55.70
40323;DHT22;26030;51.164;17.100;2023-12-28T02:01:58;23.40;56.00
40323;DHT22;26030;51.164;17.100;2023-12-28T02:07:03;23.40;55.60
40323;DHT22;26030;51.164;17.100;2023-12-28T02:12:09;23.40;55.30
40323;DHT22;26030;51.164;17.100;2023-12-28T02:17:20;23.30;55.40
40323;DHT22;26030;51.164;17.100;2023-12-28T02:22:32;23.60;55.00
40323;DHT22;26030;51.164;17.100;2023-12-28T02:27:39;24.00;54.00
40323;DHT22;26030;51.164;17.100;2023-12-28T02:38:12;24.20;53.50
40323;DHT22;26030;51.164;17.100;2023-12-28T02:43:19;24.30;53.70
40323;DHT22;26030;51.164;17.100;2023-12-28T02:48:23;24.10;53.70
40323;DHT22;26030;51.164;17.100;2023-12-28T02:53:30;23.90;53.90
40323;DHT22;26030;51.164;17.100;2023-12-28T02:58:34;23.90;54.40
40323;DHT22;26030;51.164;17.100;2023-12-28T03:03:40;23.70;54.50
40323;DHT22;26030;51.164;17.100;2023-12-28T03:08:45;23.60;55.00
40323;DHT22;26030;51.164;17.100;2023-12-28T03:13:49;23.70;54.90
40323;DHT22;26030;51.164;17.100;2023-12-28T03:18:54;23.60;54.40
40323;DHT22;26030;51.164;17.100;2023-12-28T03:24:00;23.50;54.90
40323;DHT22;26030;51.164;17.100;2023-12-28T03:29:07;23.70;54.50
40323;DHT22;26030;51.164;17.100;2023-12-28T03:34:12;23.60;54.40
40323;DHT22;26030;51.164;17.100;2023-12-28T03:39:17;23.50;54.70
40323;DHT22;26030;51.164;17.100;2023-12-28T03:44:22;23.60;54.40
40323;DHT22;26030;51.164;17.100;2023-12-28T03:49:26;23.90;53.90
40323;DHT22;26030;51.164;17.100;2023-12-28T03:54:32;23.90;54.10
40323;DHT22;26030;51.164;17.100;2023-12-28T03:59:36;24.10;53.50
40323;DHT22;26030;51.164;17.100;2023-12-28T04:04:41;24.20;53.30
40323;DHT22;26030;51.164;17.100;2023-12-28T04:09:47;24.10;53.40
40323;DHT22;26030;51.164;17.100;2023-12-28T04:14:52;23.90;53.80
40323;DHT22;26030;51.164;17.100;2023-12-28T04:19:57;23.80;54.50
40323;DHT22;26030;51.164;17.100;2023-12-28T04:25:01;23.60;54.30
40323;DHT22;26030;51.164;17.100;2023-12-28T04:30:06;23.60;54.40
40323;DHT22;26030;51.164;17.100;2023-12-28T04:35:11;23.60;54.30
40323;DHT22;26030;51.164;17.100;2023-12-28T04:40:15;23.60;54.20
40323;DHT22;26030;51.164;17.100;2023-12-28T04:45:21;23.60;54.10
40323;DHT22;26030;51.164;17.100;2023-12-28T04:50:27;23.50;54.90
40323;DHT22;26030;51.164;17.100;2023-12-28T04:55:32;23.30;54.60
40323;DHT22;26030;51.164;17.100;2023-12-28T05:00:37;23.30;54.70
40323;DHT22;26030;51.164;17.100;2023-12-28T05:05:46;23.60;54.20
40323;DHT22;26030;51.164;17.100;2023-12-28T05:10:52;23.90;53.30
40323;DHT22;26030;51.164;17.100;2023-12-28T05:15:57;24.10;53.10
40323;DHT22;26030;51.164;17.100;2023-12-28T05:21:02;24.10;53.00
40323;DHT22;26030;51.164;17.100;2023-12-28T05:26:07;24.10;53.10
40323;DHT22;26030;51.164;17.100;2023-12-28T05:31:11;23.90;53.50
40323;DHT22;26030;51.164;17.100;2023-12-28T05:36:17;23.70;54.10
40323;DHT22;26030;51.164;17.100;2023-12-28T05:41:21;23.70;53.90
40323;DHT22;26030;51.164;17.100;2023-12-28T05:46:26;23.70;54.10
40323;DHT22;26030;51.164;17.100;2023-12-28T05:51:36;23.60;54.20
40323;DHT22;26030;51.164;17.100;2023-12-28T05:56:43;23.60;54.60
40323;DHT22;26030;51.164;17.100;2023-12-28T06:01:51;23.60;54.50
40323;DHT22;26030;51.164;17.100;2023-12-28T06:06:56;23.40;54.30
40323;DHT22;26030;51.164;17.100;2023-12-28T06:12:01;23.40;54.30
40323;DHT22;26030;51.164;17.100;2023-12-28T06:17:05;23.30;54.30
40323;DHT22;26030;51.164;17.100;2023-12-28T06:22:10;23.30;54.60
40323;DHT22;26030;51.164;17.100;2023-12-28T06:27:14;23.20;54.50
40323;DHT22;26030;51.164;17.100;2023-12-28T06:32:19;23.10;54.60
40323;DHT22;26030;51.164;17.100;2023-12-28T06:37:27;23.10;54.50
40323;DHT22;26030;51.164;17.100;2023-12-28T06:42:31;23.10;54.40
40323;DHT22;26030;51.164;17.100;2023-12-28T06:47:35;23.00;54.40
40323;DHT22;26030;51.164;17.100;2023-12-28T06:52:40;23.10;54.40
40323;DHT22;26030;51.164;17.100;2023-12-28T06:57:45;23.30;54.10
40323;DHT22;26030;51.164;17.100;2023-12-28T07:02:49;23.60;53.30
40323;DHT22;26030;51.164;17.100;2023-12-28T07:07:54;23.80;52.80
40323;DHT22;26030;51.164;17.100;2023-12-28T07:12:59;23.80;52.90
40323;DHT22;26030;51.164;17.100;2023-12-28T07:18:06;23.70;53.00
40323;DHT22;26030;51.164;17.100;2023-12-28T07:23:11;23.60;53.00
40323;DHT22;26030;51.164;17.100;2023-12-28T07:28:15;23.50;53.20
40323;DHT22;26030;51.164;17.100;2023-12-28T07:33:20;23.40;53.80
40323;DHT22;26030;51.164;17.100;2023-12-28T07:38:25;23.40;53.60
40323;DHT22;26030;51.164;17.100;2023-12-28T07:43:29;23.30;54.30
40323;DHT22;26030;51.164;17.100;2023-12-28T07:48:33;23.30;54.40
40323;DHT22;26030;51.164;17.100;2023-12-28T07:53:38;23.20;54.80
40323;DHT22;26030;51.164;17.100;2023-12-28T07:58:42;23.30;54.80
40323;DHT22;26030;51.164;17.100;2023-12-28T08:03:47;23.30;54.70
40323;DHT22;26030;51.164;17.100;2023-12-28T08:08:52;23.10;54.70
40323;DHT22;26030;51.164;17.100;2023-12-28T08:13:57;23.10;54.70
40323;DHT22;26030;51.164;17.100;2023-12-28T08:19:02;23.00;55.10
40323;DHT22;26030;51.164;17.100;2023-12-28T08:24:07;22.90;55.40
40323;DHT22;26030;51.164;17.100;2023-12-28T08:29:11;22.80;55.60
40323;DHT22;26030;51.164;17.100;2023-12-28T08:34:16;22.90;55.40
40323;DHT22;26030;51.164;17.100;2023-12-28T08:39:20;23.00;55.10
40323;DHT22;26030;51.164;17.100;2023-12-28T08:44:24;23.20;54.30
40323;DHT22;26030;51.164;17.100;2023-12-28T08:49:29;23.40;53.80
40323;DHT22;26030;51.164;17.100;2023-12-28T08:54:33;23.60;53.50
40323;DHT22;26030;51.164;17.100;2023-12-28T08:59:38;23.60;53.50
40323;DHT22;26030;51.164;17.100;2023-12-28T09:04:43;23.60;53.50
40323;DHT22;26030;51.164;17.100;2023-12-28T09:09:48;23.40;54.10
40323;DHT22;26030;51.164;17.100;2023-12-28T09:14:52;23.30;53.60
40323;DHT22;26030;51.164;17.100;2023-12-28T09:19:56;23.20;54.20
40323;DHT22;26030;51.164;17.100;2023-12-28T09:25:02;23.10;54.10
40323;DHT22;26030;51.164;17.100;2023-12-28T09:30:08;23.00;54.20
40323;DHT22;26030;51.164;17.100;2023-12-28T09:35:13;23.10;54.30
40323;DHT22;26030;51.164;17.100;2023-12-28T09:40:18;23.10;54.10
40323;DHT22;26030;51.164;17.100;2023-12-28T09:45:22;23.10;53.80
40323;DHT22;26030;51.164;17.100;2023-12-28T09:50:29;23.20;53.90
40323;DHT22;26030;51.164;17.100;2023-12-28T09:55:33;23.20;53.90
40323;DHT22;26030;51.164;17.100;2023-12-28T10:00:38;23.20;54.10
40323;DHT22;26030;51.164;17.100;2023-12-28T10:05:47;23.20;54.50
40323;DHT22;26030;51.164;17.100;2023-12-28T10:10:51;23.10;54.00
40323;DHT22;26030;51.164;17.100;2023-12-28T10:15:57;23.00;54.80
40323;DHT22;26030;51.164;17.100;2023-12-28T10:21:03;22.80;54.60
40323;DHT22;26030;51.164;17.100;2023-12-28T10:26:08;22.90;54.60
40323;DHT22;26030;51.164;17.100;2023-12-28T10:31:12;23.10;55.10
40323;DHT22;26030;51.164;17.100;2023-12-28T10:36:19;23.30;54.70
40323;DHT22;26030;51.164;17.100;2023-12-28T10:41:26;23.60;54.80
40323;DHT22;26030;51.164;17.100;2023-12-28T10:46:35;23.80;54.90
40323;DHT22;26030;51.164;17.100;2023-12-28T10:51:48;23.70;55.30
40323;DHT22;26030;51.164;17.100;2023-12-28T11:02:08;23.50;55.80
40323;DHT22;26030;51.164;17.100;2023-12-28T11:07:14;23.40;56.30
40323;DHT22;26030;51.164;17.100;2023-12-28T11:12:23;23.30;56.40
40323;DHT22;26030;51.164;17.100;2023-12-28T11:17:28;23.30;56.50
40323;DHT22;26030;51.164;17.100;2023-12-28T11:22:35;23.30;56.40
40323;DHT22;26030;51.164;17.100;2023-12-28T11:27:40;23.30;56.30
40323;DHT22;26030;51.164;17.100;2023-12-28T11:32:45;23.40;56.70
40323;DHT22;26030;51.164;17.100;2023-12-28T11:37:51;23.30;56.50
40323;DHT22;26030;51.164;17.100;2023-12-28T11:42:57;23.40;56.30
40323;DHT22;26030;51.164;17.100;2023-12-28T11:48:03;23.30;56.70
40323;DHT22;26030;51.164;17.100;2023-12-28T11:53:08;23.40;56.70
40323;DHT22;26030;51.164;17.100;2023-12-28T11:58:12;23.40;56.20
40323;DHT22;26030;51.164;17.100;2023-12-28T12:03:18;23.30;56.10
40323;DHT22;26030;51.164;17.100;2023-12-28T12:08:24;23.20;56.20
40323;DHT22;26030;51.164;17.100;2023-12-28T12:13:30;23.10;56.50
40323;DHT22;26030;51.164;17.100;2023-12-28T12:18:35;23.10;55.80
40323;DHT22;26030;51.164;17.100;2023-12-28T12:23:40;23.00;56.00
40323;DHT22;26030;51.164;17.100;2023-12-28T12:28:45;23.00;55.50
40323;DHT22;26030;51.164;17.100;2023-12-28T12:33:50;23.00;55.60
40323;DHT22;26030;51.164;17.100;2023-12-28T12:38:55;22.90;55.60
40323;DHT22;26030;51.164;17.100;2023-12-28T12:44:01;23.00;55.50
40323;DHT22;26030;51.164;17.100;2023-12-28T12:49:06;22.90;55.60
40323;DHT22;26030;51.164;17.100;2023-12-28T12:54:12;22.80;56.20
40323;DHT22;26030;51.164;17.100;2023-12-28T12:59:24;23.10;55.70
40323;DHT22;26030;51.164;17.100;2023-12-28T13:04:30;23.30;55.10
40323;DHT22;26030;51.164;17.100;2023-12-28T13:09:35;23.60;54.40
40323;DHT22;26030;51.164;17.100;2023-12-28T13:14:39;23.80;54.40
40323;DHT22;26030;51.164;17.100;2023-12-28T13:19:44;23.80;54.80
40323;DHT22;26030;51.164;17.100;2023-12-28T13:24:49;23.70;55.60
40323;DHT22;26030;51.164;17.100;2023-12-28T13:29:55;23.60;56.70
40323;DHT22;26030;51.164;17.100;2023-12-28T13:35:00;23.60;57.00
40323;DHT22;26030;51.164;17.100;2023-12-28T13:40:06;23.60;57.30
40323;DHT22;26030;51.164;17.100;2023-12-28T13:45:12;23.50;58.20
40323;DHT22;26030;51.164;17.100;2023-12-28T13:50:17;23.50;57.50
40323;DHT22;26030;51.164;17.100;2023-12-28T13:55:21;23.60;57.60
40323;DHT22;26030;51.164;17.100;2023-12-28T14:00:26;23.60;57.10
40323;DHT22;26030;51.164;17.100;2023-12-28T14:05:30;23.50;58.60
40323;DHT22;26030;51.164;17.100;2023-12-28T14:10:39;23.60;59.90
40323;DHT22;26030;51.164;17.100;2023-12-28T14:15:43;23.60;59.50
40323;DHT22;26030;51.164;17.100;2023-12-28T14:20:48;23.50;60.00
40323;DHT22;26030;51.164;17.100;2023-12-28T14:25:53;23.30;59.70
40323;DHT22;26030;51.164;17.100;2023-12-28T14:30:58;23.30;59.60
40323;DHT22;26030;51.164;17.100;2023-12-28T14:36:04;23.30;59.60
40323;DHT22;26030;51.164;17.100;2023-12-28T14:41:12;23.30;59.00
40323;DHT22;26030;51.164;17.100;2023-12-28T14:46:17;23.30;59.40
40323;DHT22;26030;51.164;17.100;2023-12-28T14:51:22;23.20;59.10
40323;DHT22;26030;51.164;17.100;2023-12-28T14:56:26;23.20;59.30
40323;DHT22;26030;51.164;17.100;2023-12-28T15:01:48;23.00;59.70
40323;DHT22;26030;51.164;17.100;2023-12-28T15:06:53;22.90;60.10
40323;DHT22;26030;51.164;17.100;2023-12-28T15:11:59;23.10;59.30
40323;DHT22;26030;51.164;17.100;2023-12-28T15:17:04;23.00;58.60
40323;DHT22;26030;51.164;17.100;2023-12-28T15:22:14;23.00;57.60
40323;DHT22;26030;51.164;17.100;2023-12-28T15:27:19;23.00;56.60
40323;DHT22;26030;51.164;17.100;2023-12-28T15:32:23;23.00;56.10
40323;DHT22;26030;51.164;17.100;2023-12-28T15:37:28;23.20;55.70
40323;DHT22;26030;51.164;17.100;2023-12-28T15:42:35;23.70;54.50
40323;DHT22;26030;51.164;17.100;2023-12-28T15:47:39;23.90;53.70
40323;DHT22;26030;51.164;17.100;2023-12-28T15:52:44;23.90;53.30
40323;DHT22;26030;51.164;17.100;2023-12-28T15:57:49;23.80;53.30
40323;DHT22;26030;51.164;17.100;2023-12-28T16:02:55;23.60;53.40
40323;DHT22;26030;51.164;17.100;2023-12-28T16:08:00;23.50;53.50
40323;DHT22;26030;51.164;17.100;2023-12-28T16:13:06;23.30;54.00
40323;DHT22;26030;51.164;17.100;2023-12-28T16:18:12;23.20;53.50
40323;DHT22;26030;51.164;17.100;2023-12-28T16:23:17;23.10;53.70
40323;DHT22;26030;51.164;17.100;2023-12-28T16:28:23;23.00;53.50
40323;DHT22;26030;51.164;17.100;2023-12-28T16:33:28;23.10;53.10
40323;DHT22;26030;51.164;17.100;2023-12-28T16:38:33;23.00;53.00
40323;DHT22;26030;51.164;17.100;2023-12-28T16:43:38;23.00;52.60
40323;DHT22;26030;51.164;17.100;2023-12-28T16:48:45;23.10;52.50
40323;DHT22;26030;51.164;17.100;2023-12-28T16:53:50;23.10;52.50
40323;DHT22;26030;51.164;17.100;2023-12-28T16:58:55;23.00;52.10
40323;DHT22;26030;51.164;17.100;2023-12-28T17:04:00;23.00;52.40
40323;DHT22;26030;51.164;17.100;2023-12-28T17:09:05;23.20;51.70
40323;DHT22;26030;51.164;17.100;2023-12-28T17:14:13;23.60;50.60
40323;DHT22;26030;51.164;17.100;2023-12-28T17:19:19;23.80;50.10
40323;DHT22;26030;51.164;17.100;2023-12-28T17:24:24;23.90;49.70
40323;DHT22;26030;51.164;17.100;2023-12-28T17:29:35;24.00;49.70
40323;DHT22;26030;51.164;17.100;2023-12-28T17:34:42;23.80;49.80
40323;DHT22;26030;51.164;17.100;2023-12-28T17:39:51;23.70;50.20
40323;DHT22;26030;51.164;17.100;2023-12-28T17:44:57;23.60;50.20
40323;DHT22;26030;51.164;17.100;2023-12-28T17:50:03;23.30;50.80
40323;DHT22;26030;51.164;17.100;2023-12-28T17:55:08;23.20;50.80
40323;DHT22;26030;51.164;17.100;2023-12-28T18:00:13;23.10;51.00
40323;DHT22;26030;51.164;17.100;2023-12-28T18:05:21;23.10;51.80
40323;DHT22;26030;51.164;17.100;2023-12-28T18:10:25;23.00;51.20
40323;DHT22;26030;51.164;17.100;2023-12-28T18:15:31;23.00;51.10
40323;DHT22;26030;51.164;17.100;2023-12-28T18:20:44;23.00;51.50
40323;DHT22;26030;51.164;17.100;2023-12-28T18:25:49;22.80;51.40
40323;DHT22;26030;51.164;17.100;2023-12-28T18:30:54;22.90;51.80
40323;DHT22;26030;51.164;17.100;2023-12-28T18:35:59;23.10;51.80
40323;DHT22;26030;51.164;17.100;2023-12-28T18:41:06;23.40;52.10
40323;DHT22;26030;51.164;17.100;2023-12-28T18:46:10;23.40;51.20
40323;DHT22;26030;51.164;17.100;2023-12-28T18:51:15;23.50;51.70
40323;DHT22;26030;51.164;17.100;2023-12-28T18:56:20;23.80;52.50
40323;DHT22;26030;51.164;17.100;2023-12-28T19:01:24;23.80;52.60
40323;DHT22;26030;51.164;17.100;2023-12-28T19:06:29;23.70;52.50
40323;DHT22;26030;51.164;17.100;2023-12-28T19:11:34;23.60;52.50
40323;DHT22;26030;51.164;17.100;2023-12-28T19:16:39;23.50;52.60
40323;DHT22;26030;51.164;17.100;2023-12-28T19:21:45;23.50;52.80
40323;DHT22;26030;51.164;17.100;2023-12-28T19:26:49;23.40;52.30
40323;DHT22;26030;51.164;17.100;2023-12-28T19:31:54;23.20;52.60
40323;DHT22;26030;51.164;17.100;2023-12-28T19:36:59;23.20;53.50
40323;DHT22;26030;51.164;17.100;2023-12-28T19:42:14;23.20;53.50
40323;DHT22;26030;51.164;17.100;2023-12-28T19:47:18;23.10;53.70
40323;DHT22;26030;51.164;17.100;2023-12-28T19:52:23;23.10;53.40
40323;DHT22;26030;51.164;17.100;2023-12-28T19:57:27;23.10;53.60
40323;DHT22;26030;51.164;17.100;2023-12-28T20:02:32;23.10;53.20
40323;DHT22;26030;51.164;17.100;2023-12-28T20:07:36;22.90;54.20
40323;DHT22;26030;51.164;17.100;2023-12-28T20:12:41;22.80;53.80
40323;DHT22;26030;51.164;17.100;2023-12-28T20:17:46;22.90;54.00
40323;DHT22;26030;51.164;17.100;2023-12-28T20:22:51;22.70;53.80
40323;DHT22;26030;51.164;17.100;2023-12-28T20:27:55;22.80;53.70
40323;DHT22;26030;51.164;17.100;2023-12-28T20:33:02;22.70;53.80
40323;DHT22;26030;51.164;17.100;2023-12-28T20:38:07;22.70;53.40
40323;DHT22;26030;51.164;17.100;2023-12-28T20:43:11;23.10;53.00
40323;DHT22;26030;51.164;17.100;2023-12-28T20:48:16;23.70;51.50
40323;DHT22;26030;51.164;17.100;2023-12-28T20:53:21;24.00;50.70
40323;DHT22;26030;51.164;17.100;2023-12-28T20:58:25;24.00;50.20
40323;DHT22;26030;51.164;17.100;2023-12-28T21:03:29;23.90;50.60
40323;DHT22;26030;51.164;17.100;2023-12-28T21:08:37;23.70;51.00
40323;DHT22;26030;51.164;17.100;2023-12-28T21:13:42;23.60;51.30
40323;DHT22;26030;51.164;17.100;2023-12-28T21:18:46;23.50;51.40
40323;DHT22;26030;51.164;17.100;2023-12-28T21:23:51;23.40;51.60
40323;DHT22;26030;51.164;17.100;2023-12-28T21:28:56;23.30;52.10
40323;DHT22;26030;51.164;17.100;2023-12-28T21:34:00;23.40;51.80
40323;DHT22;26030;51.164;17.100;2023-12-28T21:39:05;23.30;52.30
40323;DHT22;26030;51.164;17.100;2023-12-28T21:44:10;23.10;52.20
40323;DHT22;26030;51.164;17.100;2023-12-28T21:49:16;23.10;52.10
40323;DHT22;26030;51.164;17.100;2023-12-28T21:54:20;23.40;51.70
40323;DHT22;26030;51.164;17.100;2023-12-28T21:59:25;23.70;50.60
40323;DHT22;26030;51.164;17.100;2023-12-28T22:04:29;23.90;50.30
40323;DHT22;26030;51.164;17.100;2023-12-28T22:09:34;24.00;50.00
40323;DHT22;26030;51.164;17.100;2023-12-28T22:14:40;23.90;53.20
40323;DHT22;26030;51.164;17.100;2023-12-28T22:19:45;23.90;51.60
40323;DHT22;26030;51.164;17.100;2023-12-28T22:24:49;23.80;51.90
40323;DHT22;26030;51.164;17.100;2023-12-28T22:29:54;23.70;51.90
40323;DHT22;26030;51.164;17.100;2023-12-28T22:34:58;23.80;51.30
40323;DHT22;26030;51.164;17.100;2023-12-28T22:40:04;23.60;51.60
40323;DHT22;26030;51.164;17.100;2023-12-28T22:45:10;23.70;51.70
40323;DHT22;26030;51.164;17.100;2023-12-28T22:50:17;23.60;51.80
40323;DHT22;26030;51.164;17.100;2023-12-28T22:55:22;23.50;51.70
40323;DHT22;26030;51.164;17.100;2023-12-28T23:00:27;23.40;51.40
40323;DHT22;26030;51.164;17.100;2023-12-28T23:05:45;23.40;51.90
40323;DHT22;26030;51.164;17.100;2023-12-28T23:10:51;23.20;52.10
40323;DHT22;26030;51.164;17.100;2023-12-28T23:15:58;23.40;52.90
40323;DHT22;26030;51.164;17.100;2023-12-28T23:21:04;23.90;52.40
40323;DHT22;26030;51.164;17.100;2023-12-28T23:26:09;24.10;51.80
40323;DHT22;26030;51.164;17.100;2023-12-28T23:31:23;24.20;51.90
40323;DHT22;26030;51.164;17.100;2023-12-28T23:36:28;24.10;52.10
40323;DHT22;26030;51.164;17.100;2023-12-28T23:41:32;24.10;52.20
40323;DHT22;26030;51.164;17.100;2023-12-28T23:46:37;23.90;52.60
40323;DHT22;26030;51.164;17.100;2023-12-28T23:51:41;23.70;53.00
40323;DHT22;26030;51.164;17.100;2023-12-28T23:56:46;23.60;53.30
